sensor_id;sensor_type;location;lat;lon;timestamp;P1;durP1;ratioP1;P2;durP2;ratioP2
41897;SDS011;27576;53.366;-1.498;2023-03-03T00:02:12;8.02;;;7.25;;
41897;SDS011;27576;53.366;-1.498;2023-03-03T00:04:37;9.38;;;8.27;;
41897;SDS011;27576;53.366;-1.498;2023-03-03T00:07:03;11.13;;;8.32;;
41897;SDS011;27576;53.366;-1.498;2023-03-03T00:09:29;8.80;;;7.57;;
41897;SDS011;27576;53.366;-1.498;2023-03-03T00:11:55;10.25;;;7.65;;
41897;SDS011;27576;53.366;-1.498;2023-03-03T00:14:24;9.30;;;7.47;;
41897;SDS011;27576;53.366;-1.498;2023-03-03T00:16:53;7.55;;;6.68;;
41897;SDS011;27576;53.366;-1.498;2023-03-03T00:19:20;8.82;;;7.25;;
41897;SDS011;27576;53.366;-1.498;2023-03-03T00:21:47;8.65;;;6.82;;
41897;SDS011;27576;53.366;-1.498;2023-03-03T00:26:47;8.85;;;7.95;;
41897;SDS011;27576;53.366;-1.498;2023-03-03T00:34:36;6.70;;;5.97;;
41897;SDS011;27576;53.366;-1.498;2023-03-03T00:37:02;7.47;;;6.03;;
41897;SDS011;27576;53.366;-1.498;2023-03-03T00:39:32;6.82;;;6.22;;
41897;SDS011;27576;53.366;-1.498;2023-03-03T00:42:01;5.45;;;4.93;;
41897;SDS011;27576;53.366;-1.498;2023-03-03T00:52:35;6.03;;;5.43;;
41897;SDS011;27576;53.366;-1.498;2023-03-03T00:55:04;5.80;;;5.13;;
41897;SDS011;27576;53.366;-1.498;2023-03-03T00:57:31;7.55;;;6.00;;
41897;SDS011;27576;53.366;-1.498;2023-03-03T00:59:57;7.25;;;6.55;;
41897;SDS011;27576;53.366;-1.498;2023-03-03T01:02:22;8.43;;;7.65;;
41897;SDS011;27576;53.366;-1.498;2023-03-03T01:04:49;10.15;;;7.10;;
41897;SDS011;27576;53.366;-1.498;2023-03-03T01:07:16;7.32;;;6.63;;
41897;SDS011;27576;53.366;-1.498;2023-03-03T01:09:42;8.07;;;7.38;;
41897;SDS011;27576;53.366;-1.498;2023-03-03T01:12:08;8.20;;;7.47;;
41897;SDS011;27576;53.366;-1.498;2023-03-03T01:14:34;8.88;;;7.43;;
41897;SDS011;27576;53.366;-1.498;2023-03-03T01:16:59;7.25;;;6.55;;
41897;SDS011;27576;53.366;-1.498;2023-03-03T01:19:25;7.38;;;6.72;;
41897;SDS011;27576;53.366;-1.498;2023-03-03T01:21:50;8.07;;;7.38;;
41897;SDS011;27576;53.366;-1.498;2023-03-03T01:24:16;7.85;;;6.97;;
41897;SDS011;27576;53.366;-1.498;2023-03-03T01:26:41;8.88;;;8.02;;
41897;SDS011;27576;53.366;-1.498;2023-03-03T01:29:06;9.43;;;8.45;;
41897;SDS011;27576;53.366;-1.498;2023-03-03T01:31:32;7.78;;;7.00;;
41897;SDS011;27576;53.366;-1.498;2023-03-03T01:33:58;6.07;;;5.47;;
41897;SDS011;27576;53.366;-1.498;2023-03-03T01:36:24;5.93;;;5.28;;
41897;SDS011;27576;53.366;-1.498;2023-03-03T01:38:50;5.50;;;5.05;;
41897;SDS011;27576;53.366;-1.498;2023-03-03T01:41:16;5.45;;;4.95;;
41897;SDS011;27576;53.366;-1.498;2023-03-03T01:43:45;6.50;;;5.72;;
41897;SDS011;27576;53.366;-1.498;2023-03-03T01:49:05;6.55;;;4.75;;
41897;SDS011;27576;53.366;-1.498;2023-03-03T01:51:36;5.07;;;4.68;;
41897;SDS011;27576;53.366;-1.498;2023-03-03T01:54:09;8.27;;;5.32;;
41897;SDS011;27576;53.366;-1.498;2023-03-03T01:56:40;6.13;;;5.53;;
41897;SDS011;27576;53.366;-1.498;2023-03-03T01:59:13;6.82;;;6.22;;
41897;SDS011;27576;53.366;-1.498;2023-03-03T02:01:44;8.98;;;7.97;;
41897;SDS011;27576;53.366;-1.498;2023-03-03T02:04:11;8.80;;;8.00;;
41897;SDS011;27576;53.366;-1.498;2023-03-03T02:06:37;8.77;;;8.07;;
41897;SDS011;27576;53.366;-1.498;2023-03-03T02:09:51;9.38;;;8.55;;
41897;SDS011;27576;53.366;-1.498;2023-03-03T02:12:04;10.30;;;8.82;;
41897;SDS011;27576;53.366;-1.498;2023-03-03T02:14:32;9.23;;;8.30;;
41897;SDS011;27576;53.366;-1.498;2023-03-03T02:16:58;9.40;;;8.60;;
41897;SDS011;27576;53.366;-1.498;2023-03-03T02:20:10;12.45;;;9.48;;
41897;SDS011;27576;53.366;-1.498;2023-03-03T02:22:16;12.07;;;10.57;;
41897;SDS011;27576;53.366;-1.498;2023-03-03T02:24:50;11.40;;;9.75;;
41897;SDS011;27576;53.366;-1.498;2023-03-03T02:27:20;10.75;;;9.75;;
41897;SDS011;27576;53.366;-1.498;2023-03-03T02:29:45;14.23;;;12.73;;
41897;SDS011;27576;53.366;-1.498;2023-03-03T02:32:11;14.75;;;13.32;;
41897;SDS011;27576;53.366;-1.498;2023-03-03T02:34:49;15.23;;;13.63;;
41897;SDS011;27576;53.366;-1.498;2023-03-03T02:37:17;17.48;;;14.30;;
41897;SDS011;27576;53.366;-1.498;2023-03-03T02:39:44;16.17;;;14.48;;
41897;SDS011;27576;53.366;-1.498;2023-03-03T02:42:14;16.23;;;14.52;;
41897;SDS011;27576;53.366;-1.498;2023-03-03T02:44:45;18.13;;;14.82;;
41897;SDS011;27576;53.366;-1.498;2023-03-03T02:47:11;16.63;;;14.93;;
41897;SDS011;27576;53.366;-1.498;2023-03-03T02:49:37;16.15;;;14.50;;
41897;SDS011;27576;53.366;-1.498;2023-03-03T02:52:04;14.75;;;13.25;;
41897;SDS011;27576;53.366;-1.498;2023-03-03T02:54:33;12.65;;;11.18;;
41897;SDS011;27576;53.366;-1.498;2023-03-03T02:57:00;10.80;;;9.65;;
41897;SDS011;27576;53.366;-1.498;2023-03-03T02:59:25;9.60;;;8.68;;
41897;SDS011;27576;53.366;-1.498;2023-03-03T03:01:51;9.38;;;8.43;;
41897;SDS011;27576;53.366;-1.498;2023-03-03T03:04:18;9.30;;;8.43;;
41897;SDS011;27576;53.366;-1.498;2023-03-03T03:06:49;8.70;;;7.85;;
41897;SDS011;27576;53.366;-1.498;2023-03-03T03:09:15;8.23;;;7.47;;
41897;SDS011;27576;53.366;-1.498;2023-03-03T03:11:42;9.73;;;8.82;;
41897;SDS011;27576;53.366;-1.498;2023-03-03T03:14:08;8.20;;;7.40;;
41897;SDS011;27576;53.366;-1.498;2023-03-03T03:16:35;10.10;;;8.98;;
41897;SDS011;27576;53.366;-1.498;2023-03-03T03:19:01;9.35;;;8.38;;
41897;SDS011;27576;53.366;-1.498;2023-03-03T03:21:27;9.75;;;8.15;;
41897;SDS011;27576;53.366;-1.498;2023-03-03T03:23:53;9.82;;;8.90;;
41897;SDS011;27576;53.366;-1.498;2023-03-03T03:26:18;9.98;;;8.80;;
41897;SDS011;27576;53.366;-1.498;2023-03-03T03:28:45;10.13;;;9.10;;
41897;SDS011;27576;53.366;-1.498;2023-03-03T03:31:11;10.65;;;9.65;;
41897;SDS011;27576;53.366;-1.498;2023-03-03T03:33:36;9.77;;;8.88;;
41897;SDS011;27576;53.366;-1.498;2023-03-03T03:36:02;10.85;;;9.75;;
41897;SDS011;27576;53.366;-1.498;2023-03-03T03:38:30;10.90;;;9.70;;
41897;SDS011;27576;53.366;-1.498;2023-03-03T03:40:56;11.35;;;10.25;;
41897;SDS011;27576;53.366;-1.498;2023-03-03T03:43:22;15.82;;;10.10;;
41897;SDS011;27576;53.366;-1.498;2023-03-03T03:45:47;12.65;;;11.35;;
41897;SDS011;27576;53.366;-1.498;2023-03-03T03:48:12;14.70;;;13.13;;
41897;SDS011;27576;53.366;-1.498;2023-03-03T03:50:38;15.65;;;14.05;;
41897;SDS011;27576;53.366;-1.498;2023-03-03T03:53:04;17.27;;;15.15;;
41897;SDS011;27576;53.366;-1.498;2023-03-03T03:55:30;18.50;;;16.23;;
41897;SDS011;27576;53.366;-1.498;2023-03-03T03:57:56;18.10;;;16.23;;
41897;SDS011;27576;53.366;-1.498;2023-03-03T04:00:21;19.88;;;17.70;;
41897;SDS011;27576;53.366;-1.498;2023-03-03T04:02:47;20.33;;;17.73;;
41897;SDS011;27576;53.366;-1.498;2023-03-03T04:05:13;22.02;;;17.60;;
41897;SDS011;27576;53.366;-1.498;2023-03-03T04:07:39;20.25;;;17.20;;
41897;SDS011;27576;53.366;-1.498;2023-03-03T04:10:04;19.92;;;17.83;;
41897;SDS011;27576;53.366;-1.498;2023-03-03T04:12:30;20.90;;;18.05;;
41897;SDS011;27576;53.366;-1.498;2023-03-03T04:15:02;19.38;;;16.98;;
41897;SDS011;27576;53.366;-1.498;2023-03-03T04:17:30;17.10;;;15.30;;
41897;SDS011;27576;53.366;-1.498;2023-03-03T04:19:56;16.00;;;14.35;;
41897;SDS011;27576;53.366;-1.498;2023-03-03T04:22:21;19.27;;;15.35;;
41897;SDS011;27576;53.366;-1.498;2023-03-03T04:24:48;15.23;;;13.60;;
41897;SDS011;27576;53.366;-1.498;2023-03-03T04:27:13;16.48;;;14.68;;
41897;SDS011;27576;53.366;-1.498;2023-03-03T04:29:39;15.65;;;14.00;;
41897;SDS011;27576;53.366;-1.498;2023-03-03T04:32:05;15.85;;;13.48;;
41897;SDS011;27576;53.366;-1.498;2023-03-03T04:34:31;14.73;;;13.20;;
41897;SDS011;27576;53.366;-1.498;2023-03-03T04:36:56;15.52;;;13.82;;
41897;SDS011;27576;53.366;-1.498;2023-03-03T04:39:22;14.82;;;13.23;;
41897;SDS011;27576;53.366;-1.498;2023-03-03T04:41:47;13.95;;;12.45;;
41897;SDS011;27576;53.366;-1.498;2023-03-03T04:44:12;14.13;;;12.63;;
41897;SDS011;27576;53.366;-1.498;2023-03-03T04:46:38;15.60;;;13.25;;
41897;SDS011;27576;53.366;-1.498;2023-03-03T04:49:03;16.05;;;13.73;;
41897;SDS011;27576;53.366;-1.498;2023-03-03T04:51:31;14.18;;;12.35;;
41897;SDS011;27576;53.366;-1.498;2023-03-03T04:53:57;14.30;;;12.68;;
41897;SDS011;27576;53.366;-1.498;2023-03-03T04:56:22;12.82;;;11.50;;
41897;SDS011;27576;53.366;-1.498;2023-03-03T04:58:47;12.52;;;11.23;;
41897;SDS011;27576;53.366;-1.498;2023-03-03T05:01:13;11.38;;;10.18;;
41897;SDS011;27576;53.366;-1.498;2023-03-03T05:03:38;13.18;;;11.77;;
41897;SDS011;27576;53.366;-1.498;2023-03-03T05:06:04;14.02;;;12.52;;
41897;SDS011;27576;53.366;-1.498;2023-03-03T05:08:30;13.75;;;12.35;;
41897;SDS011;27576;53.366;-1.498;2023-03-03T05:10:55;14.00;;;12.50;;
41897;SDS011;27576;53.366;-1.498;2023-03-03T05:13:20;13.75;;;12.35;;
41897;SDS011;27576;53.366;-1.498;2023-03-03T05:15:49;12.73;;;11.43;;
41897;SDS011;27576;53.366;-1.498;2023-03-03T05:18:17;11.80;;;10.70;;
41897;SDS011;27576;53.366;-1.498;2023-03-03T05:20:43;11.45;;;10.35;;
41897;SDS011;27576;53.366;-1.498;2023-03-03T05:23:09;13.65;;;10.82;;
41897;SDS011;27576;53.366;-1.498;2023-03-03T05:25:34;10.93;;;9.80;;
41897;SDS011;27576;53.366;-1.498;2023-03-03T05:27:59;10.45;;;9.38;;
41897;SDS011;27576;53.366;-1.498;2023-03-03T05:30:25;11.18;;;8.95;;
41897;SDS011;27576;53.366;-1.498;2023-03-03T05:32:50;8.40;;;7.63;;
41897;SDS011;27576;53.366;-1.498;2023-03-03T05:35:15;8.60;;;7.80;;
41897;SDS011;27576;53.366;-1.498;2023-03-03T05:37:41;8.27;;;7.53;;
41897;SDS011;27576;53.366;-1.498;2023-03-03T05:40:11;7.32;;;6.63;;
41897;SDS011;27576;53.366;-1.498;2023-03-03T05:42:37;6.55;;;5.95;;
41897;SDS011;27576;53.366;-1.498;2023-03-03T05:45:03;7.60;;;6.88;;
41897;SDS011;27576;53.366;-1.498;2023-03-03T05:47:28;6.22;;;5.63;;
41897;SDS011;27576;53.366;-1.498;2023-03-03T05:49:54;6.63;;;5.93;;
41897;SDS011;27576;53.366;-1.498;2023-03-03T05:52:19;7.72;;;6.90;;
41897;SDS011;27576;53.366;-1.498;2023-03-03T05:54:44;6.53;;;5.25;;
41897;SDS011;27576;53.366;-1.498;2023-03-03T05:57:10;6.20;;;5.60;;
41897;SDS011;27576;53.366;-1.498;2023-03-03T05:59:35;6.72;;;6.13;;
41897;SDS011;27576;53.366;-1.498;2023-03-03T06:02:01;8.43;;;6.90;;
41897;SDS011;27576;53.366;-1.498;2023-03-03T06:04:26;6.35;;;5.80;;
41897;SDS011;27576;53.366;-1.498;2023-03-03T06:06:52;7.82;;;7.05;;
41897;SDS011;27576;53.366;-1.498;2023-03-03T06:09:17;6.90;;;6.20;;
41897;SDS011;27576;53.366;-1.498;2023-03-03T06:11:43;6.50;;;5.80;;
41897;SDS011;27576;53.366;-1.498;2023-03-03T06:14:08;8.35;;;6.50;;
41897;SDS011;27576;53.366;-1.498;2023-03-03T06:16:34;7.70;;;6.18;;
41897;SDS011;27576;53.366;-1.498;2023-03-03T06:18:59;6.97;;;5.88;;
41897;SDS011;27576;53.366;-1.498;2023-03-03T06:21:25;5.75;;;5.25;;
41897;SDS011;27576;53.366;-1.498;2023-03-03T06:23:50;4.72;;;4.32;;
41897;SDS011;27576;53.366;-1.498;2023-03-03T06:26:16;4.10;;;3.70;;
41897;SDS011;27576;53.366;-1.498;2023-03-03T06:28:41;4.95;;;3.90;;
41897;SDS011;27576;53.366;-1.498;2023-03-03T06:31:06;4.22;;;3.30;;
41897;SDS011;27576;53.366;-1.498;2023-03-03T06:33:32;3.17;;;2.88;;
41897;SDS011;27576;53.366;-1.498;2023-03-03T06:35:57;3.15;;;2.58;;
41897;SDS011;27576;53.366;-1.498;2023-03-03T06:38:22;2.67;;;2.47;;
41897;SDS011;27576;53.366;-1.498;2023-03-03T06:40:48;2.53;;;2.28;;
41897;SDS011;27576;53.366;-1.498;2023-03-03T06:43:13;2.53;;;2.33;;
41897;SDS011;27576;53.366;-1.498;2023-03-03T06:45:39;4.35;;;2.90;;
41897;SDS011;27576;53.366;-1.498;2023-03-03T06:48:04;2.42;;;2.22;;
41897;SDS011;27576;53.366;-1.498;2023-03-03T06:50:30;2.30;;;2.10;;
41897;SDS011;27576;53.366;-1.498;2023-03-03T06:53:14;2.63;;;2.42;;
41897;SDS011;27576;53.366;-1.498;2023-03-03T06:55:42;2.72;;;2.30;;
41897;SDS011;27576;53.366;-1.498;2023-03-03T06:58:16;2.88;;;2.40;;
41897;SDS011;27576;53.366;-1.498;2023-03-03T07:00:44;2.70;;;2.50;;
41897;SDS011;27576;53.366;-1.498;2023-03-03T07:03:15;2.38;;;2.08;;
41897;SDS011;27576;53.366;-1.498;2023-03-03T07:05:43;2.30;;;2.10;;
41897;SDS011;27576;53.366;-1.498;2023-03-03T07:08:14;2.40;;;2.10;;
41897;SDS011;27576;53.366;-1.498;2023-03-03T07:10:41;3.83;;;2.22;;
41897;SDS011;27576;53.366;-1.498;2023-03-03T07:13:17;1.95;;;1.85;;
41897;SDS011;27576;53.366;-1.498;2023-03-03T07:15:53;1.80;;;1.70;;
41897;SDS011;27576;53.366;-1.498;2023-03-03T07:18:33;2.65;;;1.95;;
41897;SDS011;27576;53.366;-1.498;2023-03-03T07:21:02;4.30;;;1.90;;
41897;SDS011;27576;53.366;-1.498;2023-03-03T07:23:51;2.00;;;1.80;;
41897;SDS011;27576;53.366;-1.498;2023-03-03T07:26:19;2.65;;;1.90;;
41897;SDS011;27576;53.366;-1.498;2023-03-03T07:29:03;2.47;;;1.45;;
41897;SDS011;27576;53.366;-1.498;2023-03-03T07:31:44;2.10;;;1.88;;
41897;SDS011;27576;53.366;-1.498;2023-03-03T07:37:02;1.70;;;1.60;;
41897;SDS011;27576;53.366;-1.498;2023-03-03T07:39:37;1.85;;;1.67;;
41897;SDS011;27576;53.366;-1.498;2023-03-03T07:42:14;3.58;;;1.58;;
41897;SDS011;27576;53.366;-1.498;2023-03-03T07:44:45;2.22;;;1.80;;
41897;SDS011;27576;53.366;-1.498;2023-03-03T07:47:20;1.50;;;1.40;;
41897;SDS011;27576;53.366;-1.498;2023-03-03T07:49:48;1.98;;;1.40;;
41897;SDS011;27576;53.366;-1.498;2023-03-03T07:52:58;1.63;;;1.33;;
41897;SDS011;27576;53.366;-1.498;2023-03-03T08:03:42;1.95;;;1.80;;
41897;SDS011;27576;53.366;-1.498;2023-03-03T08:06:56;4.75;;;2.08;;
41897;SDS011;27576;53.366;-1.498;2023-03-03T08:09:23;3.05;;;2.40;;
41897;SDS011;27576;53.366;-1.498;2023-03-03T08:11:55;3.58;;;2.53;;
41897;SDS011;27576;53.366;-1.498;2023-03-03T08:14:32;7.28;;;2.95;;
41897;SDS011;27576;53.366;-1.498;2023-03-03T08:16:58;4.95;;;3.08;;
41897;SDS011;27576;53.366;-1.498;2023-03-03T08:19:24;5.70;;;3.25;;
41897;SDS011;27576;53.366;-1.498;2023-03-03T08:21:51;6.10;;;3.30;;
41897;SDS011;27576;53.366;-1.498;2023-03-03T08:24:23;4.22;;;3.70;;
41897;SDS011;27576;53.366;-1.498;2023-03-03T08:26:49;3.72;;;3.40;;
41897;SDS011;27576;53.366;-1.498;2023-03-03T08:29:14;3.60;;;3.30;;
41897;SDS011;27576;53.366;-1.498;2023-03-03T08:31:40;4.53;;;4.13;;
41897;SDS011;27576;53.366;-1.498;2023-03-03T08:34:05;4.78;;;4.38;;
41897;SDS011;27576;53.366;-1.498;2023-03-03T08:36:31;6.03;;;5.43;;
41897;SDS011;27576;53.366;-1.498;2023-03-03T08:38:56;6.68;;;6.05;;
41897;SDS011;27576;53.366;-1.498;2023-03-03T08:41:21;7.03;;;6.32;;
41897;SDS011;27576;53.366;-1.498;2023-03-03T08:43:48;8.20;;;6.95;;
41897;SDS011;27576;53.366;-1.498;2023-03-03T08:46:13;8.70;;;7.45;;
41897;SDS011;27576;53.366;-1.498;2023-03-03T08:48:39;8.80;;;7.97;;
41897;SDS011;27576;53.366;-1.498;2023-03-03T08:51:04;9.50;;;8.50;;
41897;SDS011;27576;53.366;-1.498;2023-03-03T08:53:30;8.60;;;7.43;;
41897;SDS011;27576;53.366;-1.498;2023-03-03T08:55:58;9.32;;;7.40;;
41897;SDS011;27576;53.366;-1.498;2023-03-03T08:58:23;9.65;;;7.88;;
41897;SDS011;27576;53.366;-1.498;2023-03-03T09:00:48;9.10;;;8.15;;
41897;SDS011;27576;53.366;-1.498;2023-03-03T09:03:14;7.85;;;7.07;;
41897;SDS011;27576;53.366;-1.498;2023-03-03T09:05:39;8.18;;;6.38;;
41897;SDS011;27576;53.366;-1.498;2023-03-03T09:08:05;6.35;;;5.75;;
41897;SDS011;27576;53.366;-1.498;2023-03-03T09:10:32;6.93;;;5.07;;
41897;SDS011;27576;53.366;-1.498;2023-03-03T09:13:01;6.03;;;5.25;;
41897;SDS011;27576;53.366;-1.498;2023-03-03T09:15:35;5.55;;;4.95;;
41897;SDS011;27576;53.366;-1.498;2023-03-03T09:18:13;5.15;;;4.65;;
41897;SDS011;27576;53.366;-1.498;2023-03-03T09:20:49;7.10;;;5.38;;
41897;SDS011;27576;53.366;-1.498;2023-03-03T09:25:48;6.78;;;5.80;;
41897;SDS011;27576;53.366;-1.498;2023-03-03T09:28:22;7.75;;;6.43;;
41897;SDS011;27576;53.366;-1.498;2023-03-03T09:30:49;7.43;;;6.68;;
41897;SDS011;27576;53.366;-1.498;2023-03-03T09:34:00;7.68;;;6.97;;
41897;SDS011;27576;53.366;-1.498;2023-03-03T09:36:27;8.18;;;6.60;;
41897;SDS011;27576;53.366;-1.498;2023-03-03T09:39:15;6.57;;;5.80;;
41897;SDS011;27576;53.366;-1.498;2023-03-03T09:41:47;6.65;;;6.05;;
41897;SDS011;27576;53.366;-1.498;2023-03-03T09:47:52;9.05;;;6.68;;
41897;SDS011;27576;53.366;-1.498;2023-03-03T09:50:23;6.35;;;5.75;;
41897;SDS011;27576;53.366;-1.498;2023-03-03T10:01:28;5.75;;;4.38;;
41897;SDS011;27576;53.366;-1.498;2023-03-03T10:12:26;2.92;;;2.45;;
41897;SDS011;27576;53.366;-1.498;2023-03-03T10:25:42;2.15;;;1.92;;
41897;SDS011;27576;53.366;-1.498;2023-03-03T11:02:31;2.53;;;2.33;;
41897;SDS011;27576;53.366;-1.498;2023-03-03T11:08:50;6.72;;;3.30;;
41897;SDS011;27576;53.366;-1.498;2023-03-03T11:13:46;2.95;;;2.72;;
41897;SDS011;27576;53.366;-1.498;2023-03-03T11:22:06;3.75;;;2.22;;
41897;SDS011;27576;53.366;-1.498;2023-03-03T11:24:57;3.05;;;2.10;;
41897;SDS011;27576;53.366;-1.498;2023-03-03T11:39:24;3.13;;;2.38;;
41897;SDS011;27576;53.366;-1.498;2023-03-03T11:41:29;4.53;;;2.60;;
41897;SDS011;27576;53.366;-1.498;2023-03-03T11:44:08;2.90;;;2.50;;
41897;SDS011;27576;53.366;-1.498;2023-03-03T11:46:48;3.47;;;2.60;;
41897;SDS011;27576;53.366;-1.498;2023-03-03T11:55:11;3.15;;;2.85;;
41897;SDS011;27576;53.366;-1.498;2023-03-03T11:58:18;3.67;;;2.58;;
41897;SDS011;27576;53.366;-1.498;2023-03-03T12:03:46;3.72;;;2.80;;
41897;SDS011;27576;53.366;-1.498;2023-03-03T12:09:03;4.78;;;3.70;;
41897;SDS011;27576;53.366;-1.498;2023-03-03T12:14:47;4.15;;;3.42;;
41897;SDS011;27576;53.366;-1.498;2023-03-03T12:22:53;4.50;;;3.88;;
41897;SDS011;27576;53.366;-1.498;2023-03-03T12:36:42;3.80;;;2.80;;
41897;SDS011;27576;53.366;-1.498;2023-03-03T12:48:20;5.03;;;3.80;;
41897;SDS011;27576;53.366;-1.498;2023-03-03T12:50:56;3.67;;;3.28;;
41897;SDS011;27576;53.366;-1.498;2023-03-03T12:56:06;8.18;;;3.60;;
41897;SDS011;27576;53.366;-1.498;2023-03-03T13:07:15;6.45;;;3.67;;
41897;SDS011;27576;53.366;-1.498;2023-03-03T13:10:00;6.15;;;3.85;;
41897;SDS011;27576;53.366;-1.498;2023-03-03T13:12:52;5.40;;;3.22;;
41897;SDS011;27576;53.366;-1.498;2023-03-03T13:15:43;5.97;;;3.40;;
41897;SDS011;27576;53.366;-1.498;2023-03-03T13:29:14;5.93;;;3.00;;
41897;SDS011;27576;53.366;-1.498;2023-03-03T13:31:46;6.78;;;2.75;;
41897;SDS011;27576;53.366;-1.498;2023-03-03T13:34:22;5.78;;;3.15;;
41897;SDS011;27576;53.366;-1.498;2023-03-03T13:37:00;5.05;;;2.78;;
41897;SDS011;27576;53.366;-1.498;2023-03-03T13:39:32;8.55;;;3.38;;
41897;SDS011;27576;53.366;-1.498;2023-03-03T13:42:03;5.60;;;3.80;;
41897;SDS011;27576;53.366;-1.498;2023-03-03T13:44:39;5.88;;;3.55;;
41897;SDS011;27576;53.366;-1.498;2023-03-03T13:50:18;6.40;;;3.70;;
41897;SDS011;27576;53.366;-1.498;2023-03-03T13:55:31;7.43;;;3.45;;
41897;SDS011;27576;53.366;-1.498;2023-03-03T13:58:20;6.25;;;3.30;;
41897;SDS011;27576;53.366;-1.498;2023-03-03T14:01:05;4.80;;;2.72;;
41897;SDS011;27576;53.366;-1.498;2023-03-03T14:06:04;6.55;;;2.30;;
41897;SDS011;27576;53.366;-1.498;2023-03-03T14:08:54;5.50;;;2.30;;
41897;SDS011;27576;53.366;-1.498;2023-03-03T14:11:55;7.15;;;2.90;;
41897;SDS011;27576;53.366;-1.498;2023-03-03T14:14:40;6.75;;;2.53;;
41897;SDS011;27576;53.366;-1.498;2023-03-03T14:17:16;4.10;;;2.10;;
41897;SDS011;27576;53.366;-1.498;2023-03-03T14:19:45;4.28;;;2.10;;
41897;SDS011;27576;53.366;-1.498;2023-03-03T14:25:10;6.38;;;2.92;;
41897;SDS011;27576;53.366;-1.498;2023-03-03T14:28:01;5.10;;;2.28;;
41897;SDS011;27576;53.366;-1.498;2023-03-03T14:30:41;3.45;;;2.15;;
41897;SDS011;27576;53.366;-1.498;2023-03-03T14:35:37;6.88;;;2.40;;
41897;SDS011;27576;53.366;-1.498;2023-03-03T14:40:34;7.85;;;2.50;;
41897;SDS011;27576;53.366;-1.498;2023-03-03T14:43:02;4.60;;;2.15;;
41897;SDS011;27576;53.366;-1.498;2023-03-03T14:45:42;6.68;;;2.20;;
41897;SDS011;27576;53.366;-1.498;2023-03-03T14:48:15;4.43;;;2.13;;
41897;SDS011;27576;53.366;-1.498;2023-03-03T14:50:50;5.60;;;2.08;;
41897;SDS011;27576;53.366;-1.498;2023-03-03T14:55:43;6.93;;;3.92;;
41897;SDS011;27576;53.366;-1.498;2023-03-03T14:58:23;10.05;;;3.67;;
41897;SDS011;27576;53.366;-1.498;2023-03-03T15:04:02;8.20;;;2.90;;
41897;SDS011;27576;53.366;-1.498;2023-03-03T15:06:47;4.68;;;3.47;;
41897;SDS011;27576;53.366;-1.498;2023-03-03T15:11:59;6.55;;;2.88;;
41897;SDS011;27576;53.366;-1.498;2023-03-03T15:14:29;7.32;;;3.55;;
41897;SDS011;27576;53.366;-1.498;2023-03-03T15:19:56;7.88;;;4.10;;
41897;SDS011;27576;53.366;-1.498;2023-03-03T15:25:34;7.15;;;3.25;;
41897;SDS011;27576;53.366;-1.498;2023-03-03T15:42:06;8.57;;;4.22;;
41897;SDS011;27576;53.366;-1.498;2023-03-03T15:47:59;6.72;;;3.92;;
41897;SDS011;27576;53.366;-1.498;2023-03-03T15:50:34;8.00;;;4.47;;
41897;SDS011;27576;53.366;-1.498;2023-03-03T16:01:41;7.43;;;4.28;;
41897;SDS011;27576;53.366;-1.498;2023-03-03T16:04:17;6.15;;;4.47;;
41897;SDS011;27576;53.366;-1.498;2023-03-03T16:06:52;7.15;;;4.63;;
41897;SDS011;27576;53.366;-1.498;2023-03-03T16:12:16;5.22;;;3.50;;
41897;SDS011;27576;53.366;-1.498;2023-03-03T16:17:35;6.57;;;3.60;;
41897;SDS011;27576;53.366;-1.498;2023-03-03T16:20:08;9.02;;;4.38;;
41897;SDS011;27576;53.366;-1.498;2023-03-03T16:31:28;10.85;;;3.85;;
41897;SDS011;27576;53.366;-1.498;2023-03-03T16:37:11;6.03;;;3.40;;
41897;SDS011;27576;53.366;-1.498;2023-03-03T16:39:56;10.90;;;4.32;;
41897;SDS011;27576;53.366;-1.498;2023-03-03T16:42:25;9.43;;;3.80;;
41897;SDS011;27576;53.366;-1.498;2023-03-03T16:50:45;7.43;;;3.28;;
41897;SDS011;27576;53.366;-1.498;2023-03-03T16:56:20;9.10;;;3.80;;
41897;SDS011;27576;53.366;-1.498;2023-03-03T16:59:12;13.73;;;4.07;;
41897;SDS011;27576;53.366;-1.498;2023-03-03T17:10:41;13.95;;;4.55;;
41897;SDS011;27576;53.366;-1.498;2023-03-03T17:16:13;12.90;;;3.85;;
41897;SDS011;27576;53.366;-1.498;2023-03-03T17:19:21;13.43;;;4.25;;
41897;SDS011;27576;53.366;-1.498;2023-03-03T17:22:07;7.45;;;4.80;;
41897;SDS011;27576;53.366;-1.498;2023-03-03T17:35:47;15.02;;;5.82;;
41897;SDS011;27576;53.366;-1.498;2023-03-03T17:41:20;19.67;;;6.68;;
41897;SDS011;27576;53.366;-1.498;2023-03-03T17:46:47;14.80;;;5.30;;
41897;SDS011;27576;53.366;-1.498;2023-03-03T18:03:06;9.73;;;3.92;;
41897;SDS011;27576;53.366;-1.498;2023-03-03T18:19:25;11.43;;;4.20;;
41897;SDS011;27576;53.366;-1.498;2023-03-03T18:32:58;17.92;;;4.53;;
41897;SDS011;27576;53.366;-1.498;2023-03-03T18:35:35;8.68;;;4.07;;
41897;SDS011;27576;53.366;-1.498;2023-03-03T18:40:50;9.32;;;4.53;;
41897;SDS011;27576;53.366;-1.498;2023-03-03T18:46:04;12.35;;;4.60;;
41897;SDS011;27576;53.366;-1.498;2023-03-03T18:48:45;9.88;;;4.72;;
41897;SDS011;27576;53.366;-1.498;2023-03-03T18:51:47;11.02;;;4.55;;
41897;SDS011;27576;53.366;-1.498;2023-03-03T18:56:41;11.18;;;4.53;;
41897;SDS011;27576;53.366;-1.498;2023-03-03T18:59:07;13.82;;;4.45;;
41897;SDS011;27576;53.366;-1.498;2023-03-03T19:01:43;12.95;;;4.80;;
41897;SDS011;27576;53.366;-1.498;2023-03-03T19:09:04;15.52;;;6.75;;
41897;SDS011;27576;53.366;-1.498;2023-03-03T19:11:48;17.50;;;6.53;;
41897;SDS011;27576;53.366;-1.498;2023-03-03T19:16:53;12.05;;;6.50;;
41897;SDS011;27576;53.366;-1.498;2023-03-03T19:19:32;16.75;;;6.47;;
41897;SDS011;27576;53.366;-1.498;2023-03-03T19:27:47;12.43;;;7.10;;
41897;SDS011;27576;53.366;-1.498;2023-03-03T19:33:10;18.80;;;10.18;;
41897;SDS011;27576;53.366;-1.498;2023-03-03T19:36:16;15.05;;;9.10;;
41897;SDS011;27576;53.366;-1.498;2023-03-03T19:41:25;22.20;;;10.52;;
41897;SDS011;27576;53.366;-1.498;2023-03-03T19:44:11;14.73;;;7.97;;
41897;SDS011;27576;53.366;-1.498;2023-03-03T19:54:50;12.02;;;6.43;;
41897;SDS011;27576;53.366;-1.498;2023-03-03T20:00:12;13.55;;;6.90;;
41897;SDS011;27576;53.366;-1.498;2023-03-03T20:03:01;11.63;;;5.63;;
41897;SDS011;27576;53.366;-1.498;2023-03-03T20:08:27;11.18;;;5.10;;
41897;SDS011;27576;53.366;-1.498;2023-03-03T20:21:34;23.77;;;6.80;;
41897;SDS011;27576;53.366;-1.498;2023-03-03T20:24:15;14.63;;;5.20;;
41897;SDS011;27576;53.366;-1.498;2023-03-03T20:29:39;11.98;;;5.43;;
41897;SDS011;27576;53.366;-1.498;2023-03-03T20:32:42;12.27;;;5.28;;
41897;SDS011;27576;53.366;-1.498;2023-03-03T20:35:45;13.85;;;5.63;;
41897;SDS011;27576;53.366;-1.498;2023-03-03T20:47:41;13.65;;;6.85;;
41897;SDS011;27576;53.366;-1.498;2023-03-03T20:50:21;13.60;;;5.85;;
41897;SDS011;27576;53.366;-1.498;2023-03-03T20:53:16;14.82;;;5.55;;
41897;SDS011;27576;53.366;-1.498;2023-03-03T20:55:55;17.58;;;6.25;;
41897;SDS011;27576;53.366;-1.498;2023-03-03T20:58:56;12.30;;;7.05;;
41897;SDS011;27576;53.366;-1.498;2023-03-03T21:01:33;17.50;;;5.70;;
41897;SDS011;27576;53.366;-1.498;2023-03-03T21:04:18;10.70;;;4.90;;
41897;SDS011;27576;53.366;-1.498;2023-03-03T21:06:55;14.32;;;4.95;;
41897;SDS011;27576;53.366;-1.498;2023-03-03T21:09:26;8.77;;;4.30;;
41897;SDS011;27576;53.366;-1.498;2023-03-03T21:11:57;13.98;;;4.75;;
41897;SDS011;27576;53.366;-1.498;2023-03-03T21:16:52;13.88;;;4.28;;
41897;SDS011;27576;53.366;-1.498;2023-03-03T21:19:24;16.90;;;5.03;;
41897;SDS011;27576;53.366;-1.498;2023-03-03T21:21:52;17.00;;;5.35;;
41897;SDS011;27576;53.366;-1.498;2023-03-03T21:24:18;16.55;;;5.68;;
41897;SDS011;27576;53.366;-1.498;2023-03-03T21:29:18;13.55;;;4.53;;
41897;SDS011;27576;53.366;-1.498;2023-03-03T21:31:49;9.23;;;4.22;;
41897;SDS011;27576;53.366;-1.498;2023-03-03T21:34:17;13.50;;;4.80;;
41897;SDS011;27576;53.366;-1.498;2023-03-03T21:36:48;10.70;;;3.95;;